RJAF(METAR)
08/12 18:00
METAR RJAF 120900Z 15011KT 9999 FEW020 SCT070 BKN/// 26/21 Q1011 RMK
1CU020 4AC070 A2987=
戻る
トップページへ戻る
IMOC Co,.Ltd.